createdAt,value
2022-08-03T00:00:24.386Z,15.58
2022-08-03T00:02:51.547Z,15.56
2022-08-03T00:05:18.246Z,15.53
2022-08-03T00:07:45.506Z,15.49
2022-08-03T00:10:13.580Z,15.45
2022-08-03T00:12:40.247Z,15.43
2022-08-03T00:15:11.088Z,15.40
2022-08-03T00:17:52.740Z,15.37
2022-08-03T00:20:21.814Z,15.30
2022-08-03T00:22:48.977Z,15.26
2022-08-03T00:25:15.958Z,15.24
2022-08-03T00:27:42.646Z,15.26
2022-08-03T00:30:09.686Z,15.25
2022-08-03T00:32:36.340Z,15.26
2022-08-03T00:35:09.311Z,15.26
2022-08-03T00:37:41.391Z,15.26
2022-08-03T00:40:13.905Z,15.23
2022-08-03T00:43:00.657Z,15.17
2022-08-03T00:45:33.137Z,15.12
2022-08-03T00:48:00.795Z,15.13
2022-08-03T00:50:30.937Z,15.17
2022-08-03T00:52:59.689Z,15.16
2022-08-03T00:55:26.491Z,15.16
2022-08-03T00:57:54.232Z,15.15
2022-08-03T01:00:24.355Z,15.14
2022-08-03T01:02:52.712Z,15.12
2022-08-03T01:05:21.618Z,15.08
2022-08-03T01:08:19.935Z,15.04
2022-08-03T01:11:05.389Z,14.98
2022-08-03T01:14:04.124Z,14.94
2022-08-03T01:17:16.232Z,14.91
2022-08-03T01:19:52.600Z,14.89
2022-08-03T01:22:37.896Z,14.87
2022-08-03T01:25:07.506Z,14.88
2022-08-03T01:27:53.288Z,14.88
2022-08-03T01:30:20.606Z,14.89
2022-08-03T01:33:00.753Z,14.87
2022-08-03T01:35:38.561Z,14.86
2022-08-03T01:38:33.408Z,14.83
2022-08-03T01:41:07.658Z,14.79
2022-08-03T01:44:26.539Z,14.76
2022-08-03T01:46:26.328Z,14.75
2022-08-03T01:48:55.910Z,14.74
2022-08-03T01:51:23.210Z,14.72
2022-08-03T01:53:52.315Z,14.69
2022-08-03T01:56:22.275Z,14.69
2022-08-03T01:58:51.344Z,14.68
2022-08-03T02:01:18.973Z,14.66
2022-08-03T02:04:00.180Z,14.66
2022-08-03T02:06:59.814Z,14.66
2022-08-03T02:09:20.939Z,14.65
2022-08-03T02:11:48.448Z,14.64
2022-08-03T02:14:17.260Z,14.60
2022-08-03T02:16:45.577Z,14.57
2022-08-03T02:19:13.751Z,14.57
2022-08-03T02:21:56.636Z,14.59
2022-08-03T02:24:29.029Z,14.55
2022-08-03T02:26:56.712Z,14.50
2022-08-03T02:29:39.965Z,14.46
2022-08-03T02:32:12.675Z,14.43
2022-08-03T02:34:40.861Z,14.45
2022-08-03T02:37:10.401Z,14.47
2022-08-03T02:39:40.628Z,14.50
2022-08-03T02:42:09.594Z,14.52
2022-08-03T02:44:40.905Z,14.55
2022-08-03T02:47:11.316Z,14.52
2022-08-03T02:49:50.279Z,14.48
2022-08-03T02:52:24.098Z,14.42
2022-08-03T02:54:53.904Z,14.39
2022-08-03T02:57:21.676Z,14.40
2022-08-03T02:59:49.668Z,14.40
2022-08-03T03:02:18.336Z,14.41
2022-08-03T03:05:51.131Z,14.45
2022-08-03T03:07:46.872Z,14.42
2022-08-03T03:10:22.023Z,14.39
2022-08-03T03:12:52.119Z,14.36
2022-08-03T03:15:19.088Z,14.31
2022-08-03T03:17:46.921Z,14.30
2022-08-03T03:20:15.910Z,14.30
2022-08-03T03:23:00.334Z,14.32
2022-08-03T03:25:37.720Z,14.32
2022-08-03T03:28:06.341Z,14.34
2022-08-03T03:30:34.431Z,14.34
2022-08-03T03:33:02.898Z,14.35
2022-08-03T03:35:30.083Z,14.35
2022-08-03T03:37:57.383Z,14.35
2022-08-03T03:40:26.690Z,14.35
2022-08-03T03:42:53.431Z,14.36
2022-08-03T03:45:21.867Z,14.39
2022-08-03T03:47:48.712Z,14.43
2022-08-03T03:50:18.978Z,14.46
2022-08-03T03:52:45.635Z,14.47
2022-08-03T03:55:16.792Z,14.51
2022-08-03T03:57:43.607Z,14.55
2022-08-03T04:00:12.592Z,14.59
2022-08-03T04:02:39.727Z,14.63
2022-08-03T04:05:27.729Z,14.67
2022-08-03T04:08:34.638Z,14.75
2022-08-03T04:11:36.403Z,14.80
2022-08-03T04:14:32.729Z,14.88
2022-08-03T04:17:03.442Z,14.94
2022-08-03T04:19:40.662Z,14.96
2022-08-03T04:22:10.808Z,14.97
2022-08-03T04:24:46.942Z,15.04
2022-08-03T04:27:17.984Z,15.11
2022-08-03T04:29:49.488Z,15.17
2022-08-03T04:32:17.581Z,15.22
2022-08-03T04:34:44.706Z,15.24
2022-08-03T04:37:15.775Z,15.25
2022-08-03T04:39:45.660Z,15.27
2022-08-03T04:42:15.309Z,15.31
2022-08-03T04:44:45.425Z,15.36
2022-08-03T04:47:12.173Z,15.46
2022-08-03T04:49:39.953Z,15.54
2022-08-03T04:52:10.299Z,15.65
2022-08-03T04:54:48.788Z,15.75
2022-08-03T04:57:22.106Z,15.88
2022-08-03T05:00:01.351Z,15.98
2022-08-03T05:02:30.217Z,16.10
2022-08-03T05:04:56.941Z,16.21
2022-08-03T05:07:24.629Z,16.30
2022-08-03T05:09:57.553Z,16.40
2022-08-03T05:12:32.517Z,16.49
2022-08-03T05:15:00.544Z,16.53
2022-08-03T05:17:27.516Z,16.56
2022-08-03T05:19:54.856Z,16.58
2022-08-03T05:22:22.087Z,16.61
2022-08-03T05:24:49.055Z,16.67
2022-08-03T05:27:21.947Z,16.69
2022-08-03T05:29:50.328Z,16.72
2022-08-03T05:32:18.530Z,16.74
2022-08-03T05:34:45.579Z,16.78
2022-08-03T05:37:12.521Z,16.81
2022-08-03T05:39:39.204Z,16.84
2022-08-03T05:42:06.922Z,16.86
2022-08-03T05:44:33.667Z,16.88
2022-08-03T05:47:00.375Z,16.92
2022-08-03T05:49:27.096Z,17.01
2022-08-03T05:52:00.185Z,17.15
2022-08-03T05:54:56.794Z,17.29
2022-08-03T05:57:25.673Z,17.44
2022-08-03T05:59:54.612Z,17.58
2022-08-03T06:02:24.452Z,17.71
2022-08-03T06:04:51.177Z,17.81
2022-08-03T06:07:17.865Z,17.85
2022-08-03T06:10:34.023Z,17.89
2022-08-03T06:12:31.971Z,17.89
2022-08-03T06:14:58.637Z,17.90
2022-08-03T06:17:25.330Z,17.96
2022-08-03T06:19:54.042Z,18.05
2022-08-03T06:22:21.537Z,18.18
2022-08-03T06:24:53.405Z,18.29
2022-08-03T06:27:20.636Z,18.45
2022-08-03T06:30:04.300Z,18.56
2022-08-03T06:32:31.077Z,18.62
2022-08-03T06:34:57.808Z,18.75
2022-08-03T06:37:24.713Z,18.92
2022-08-03T06:39:51.441Z,19.07
2022-08-03T06:42:18.300Z,19.25
2022-08-03T06:44:47.395Z,19.39
2022-08-03T06:47:14.357Z,19.46
2022-08-03T06:49:41.750Z,19.53
2022-08-03T06:52:09.244Z,19.62
2022-08-03T06:54:36.349Z,19.71
2022-08-03T06:57:03.795Z,19.80
2022-08-03T07:00:10.469Z,19.85
2022-08-03T07:02:19.875Z,19.93
2022-08-03T07:04:49.463Z,20.01
2022-08-03T07:07:17.495Z,20.07
2022-08-03T07:09:57.048Z,20.15
2022-08-03T07:12:26.493Z,20.18
2022-08-03T07:14:56.657Z,20.23
2022-08-03T07:17:27.992Z,20.30
2022-08-03T07:19:54.963Z,20.39
2022-08-03T07:22:23.764Z,20.51
2022-08-03T07:24:52.325Z,20.63
2022-08-03T07:27:21.088Z,20.78
2022-08-03T07:29:48.727Z,20.93
2022-08-03T07:32:15.587Z,21.06
2022-08-03T07:34:42.390Z,21.15
2022-08-03T07:37:09.738Z,21.23
2022-08-03T07:39:36.750Z,21.26
2022-08-03T07:42:04.363Z,21.31
2022-08-03T07:44:31.024Z,21.40
2022-08-03T07:46:58.278Z,21.50
2022-08-03T07:49:25.104Z,21.62
2022-08-03T07:52:11.874Z,21.80
2022-08-03T07:54:38.698Z,21.87
2022-08-03T07:57:05.692Z,21.89
2022-08-03T08:00:01.845Z,22.01
2022-08-03T08:02:19.550Z,22.25
2022-08-03T08:04:46.434Z,22.45
2022-08-03T08:07:13.128Z,22.65
2022-08-03T08:09:42.567Z,22.81
2022-08-03T08:12:15.517Z,22.91
2022-08-03T08:14:42.587Z,23.04
2022-08-03T08:17:09.287Z,23.21
2022-08-03T08:19:36.815Z,23.33
2022-08-03T08:22:11.200Z,23.40
2022-08-03T08:24:38.230Z,23.51
2022-08-03T08:27:06.266Z,23.66
2022-08-03T08:29:35.079Z,23.79
2022-08-03T08:32:01.780Z,23.92
2022-08-03T08:34:28.482Z,24.07
2022-08-03T08:36:59.594Z,24.22
2022-08-03T08:39:26.299Z,24.41
2022-08-03T08:41:53.383Z,24.62
2022-08-03T08:44:20.190Z,24.87
2022-08-03T08:46:48.118Z,25.10
2022-08-03T08:49:18.769Z,25.33
2022-08-03T08:51:54.450Z,25.59
2022-08-03T08:54:29.292Z,25.90
2022-08-03T08:56:57.609Z,26.18
2022-08-03T08:59:25.523Z,26.49
2022-08-03T09:01:58.937Z,26.95
2022-08-03T09:04:26.679Z,27.54
2022-08-03T09:07:17.629Z,28.22
2022-08-03T09:10:04.693Z,28.96
2022-08-03T09:12:42.926Z,29.64
2022-08-03T09:15:27.036Z,29.85
2022-08-03T09:17:55.909Z,30.18
2022-08-03T09:20:23.386Z,31.00
2022-08-03T09:22:55.359Z,31.91
2022-08-03T09:25:43.462Z,32.96
2022-08-03T09:28:52.505Z,34.09
2022-08-03T09:31:02.019Z,35.25
2022-08-03T09:33:36.127Z,36.03
2022-08-03T09:36:03.276Z,36.89
2022-08-03T09:38:30.330Z,37.32
2022-08-03T09:41:00.335Z,37.58
2022-08-03T09:43:28.544Z,37.83
2022-08-03T09:46:05.325Z,38.19
2022-08-03T09:48:37.460Z,38.58
2022-08-03T09:51:13.575Z,38.69
2022-08-03T09:53:59.068Z,38.58
2022-08-03T09:56:41.974Z,38.48
2022-08-03T09:59:10.155Z,38.70
2022-08-03T10:01:38.899Z,39.08
2022-08-03T10:04:05.707Z,39.39
2022-08-03T10:06:32.716Z,40.00
2022-08-03T10:09:05.307Z,40.76
2022-08-03T10:11:36.216Z,41.17
2022-08-03T10:14:10.706Z,41.54
2022-08-03T10:16:40.634Z,41.96
2022-08-03T10:19:08.669Z,42.32
2022-08-03T10:21:39.603Z,42.68
2022-08-03T10:24:08.904Z,43.21
2022-08-03T10:26:39.313Z,43.43
2022-08-03T10:29:22.860Z,43.47
2022-08-03T10:31:57.494Z,42.83
2022-08-03T10:34:29.063Z,41.74
2022-08-03T10:37:00.163Z,40.47
2022-08-03T10:39:30.888Z,39.22
2022-08-03T10:42:02.448Z,38.28
2022-08-03T10:44:37.392Z,37.45
2022-08-03T10:47:04.950Z,36.52
2022-08-03T10:49:34.335Z,35.92
2022-08-03T10:52:13.880Z,35.46
2022-08-03T10:55:10.847Z,35.76
2022-08-03T10:57:58.919Z,36.73
2022-08-03T11:00:26.870Z,37.91
2022-08-03T11:03:08.955Z,38.74
2022-08-03T11:05:43.664Z,39.62
2022-08-03T11:08:35.052Z,40.54
2022-08-03T11:11:21.952Z,40.85
2022-08-03T11:14:05.262Z,41.39
2022-08-03T11:16:38.105Z,41.85
2022-08-03T11:19:06.970Z,41.74
2022-08-03T11:21:52.894Z,40.96
2022-08-03T11:24:37.762Z,39.77
2022-08-03T11:27:23.468Z,38.79
2022-08-03T11:30:27.264Z,37.89
2022-08-03T11:32:58.375Z,37.27
2022-08-03T11:35:33.920Z,37.10
2022-08-03T11:38:03.435Z,36.79
2022-08-03T11:40:35.713Z,36.77
2022-08-03T11:43:09.429Z,37.62
2022-08-03T11:45:37.476Z,38.29
2022-08-03T11:48:17.112Z,39.08
2022-08-03T11:50:46.175Z,39.43
2022-08-03T11:53:18.439Z,39.81
2022-08-03T11:55:51.485Z,40.16
2022-08-03T11:59:00.815Z,40.99
2022-08-03T12:01:07.795Z,41.92
2022-08-03T12:03:35.374Z,42.38
2022-08-03T12:06:03.223Z,42.45
2022-08-03T12:08:33.906Z,42.03
2022-08-03T12:11:03.224Z,42.02
2022-08-03T12:14:45.024Z,42.14
2022-08-03T12:16:35.710Z,41.66
2022-08-03T12:19:05.565Z,41.56
2022-08-03T12:21:32.546Z,41.39
2022-08-03T12:24:01.909Z,40.95
2022-08-03T12:26:58.663Z,40.22
2022-08-03T12:29:26.712Z,39.19
2022-08-03T12:31:53.510Z,38.26
2022-08-03T12:34:23.367Z,37.46
2022-08-03T12:36:56.515Z,36.70
2022-08-03T12:39:24.516Z,36.17
2022-08-03T12:41:55.929Z,35.95
2022-08-03T12:44:36.283Z,36.53
2022-08-03T12:47:05.711Z,37.48
2022-08-03T12:49:50.316Z,38.60
2022-08-03T12:52:22.667Z,38.59
2022-08-03T12:54:57.820Z,38.66
2022-08-03T12:57:24.849Z,39.07
2022-08-03T12:59:56.017Z,39.78
2022-08-03T13:02:25.340Z,40.31
2022-08-03T13:04:56.474Z,40.46
2022-08-03T13:07:23.501Z,40.65
2022-08-03T13:09:56.458Z,41.08
2022-08-03T13:12:28.520Z,41.20
2022-08-03T13:14:58.932Z,41.35
2022-08-03T13:17:27.014Z,41.65
2022-08-03T13:19:54.905Z,41.74
2022-08-03T13:22:26.147Z,41.59
2022-08-03T13:24:58.325Z,41.87
2022-08-03T13:28:03.978Z,42.28
2022-08-03T13:30:12.646Z,42.44
2022-08-03T13:32:39.979Z,42.72
2022-08-03T13:35:08.810Z,43.09
2022-08-03T13:37:36.531Z,43.28
2022-08-03T13:40:06.246Z,43.30
2022-08-03T13:42:34.710Z,43.23
2022-08-03T13:45:02.753Z,42.96
2022-08-03T13:47:29.635Z,42.42
2022-08-03T13:50:01.899Z,41.87
2022-08-03T13:52:34.304Z,41.35
2022-08-03T13:55:05.462Z,40.94
2022-08-03T13:58:02.973Z,40.39
2022-08-03T14:00:27.704Z,39.86
2022-08-03T14:03:06.729Z,39.53
2022-08-03T14:05:40.302Z,39.15
2022-08-03T14:08:07.675Z,38.60
2022-08-03T14:10:40.429Z,38.27
2022-08-03T14:13:08.131Z,38.03
2022-08-03T14:15:38.321Z,37.95
2022-08-03T14:18:07.305Z,37.76
2022-08-03T14:20:50.012Z,37.55
2022-08-03T14:23:21.232Z,37.41
2022-08-03T14:25:52.465Z,37.25
2022-08-03T14:28:23.973Z,37.00
2022-08-03T14:30:56.554Z,36.70
2022-08-03T14:33:23.938Z,36.50
2022-08-03T14:35:51.708Z,36.12
2022-08-03T14:38:18.919Z,35.82
2022-08-03T14:40:46.429Z,35.38
2022-08-03T14:43:18.204Z,34.75
2022-08-03T14:45:45.088Z,34.23
2022-08-03T14:50:28.572Z,33.84
2022-08-03T14:50:59.280Z,33.40
2022-08-03T14:53:26.209Z,33.06
2022-08-03T14:55:52.968Z,32.78
2022-08-03T14:58:21.843Z,32.50
2022-08-03T15:00:50.559Z,32.24
2022-08-03T15:03:20.566Z,32.06
2022-08-03T15:05:47.659Z,31.86
2022-08-03T15:08:14.397Z,31.70
2022-08-03T15:10:45.438Z,31.54
2022-08-03T15:13:15.404Z,31.33
2022-08-03T15:15:43.007Z,31.22
2022-08-03T15:18:09.980Z,31.13
2022-08-03T15:20:44.515Z,31.04
2022-08-03T15:23:12.592Z,30.97
2022-08-03T15:26:06.549Z,30.85
2022-08-03T15:28:26.079Z,30.75
2022-08-03T15:30:53.144Z,30.59
2022-08-03T15:33:20.403Z,30.46
2022-08-03T15:35:47.876Z,30.35
2022-08-03T15:38:14.883Z,30.26
2022-08-03T15:40:42.032Z,30.17
2022-08-03T15:43:08.768Z,30.06
2022-08-03T15:45:36.884Z,29.94
2022-08-03T15:48:05.460Z,29.83
2022-08-03T15:50:32.227Z,29.70
2022-08-03T15:52:58.974Z,29.57
2022-08-03T15:55:26.405Z,29.44
2022-08-03T15:59:03.849Z,29.32
2022-08-03T16:00:41.308Z,29.16
2022-08-03T16:03:08.021Z,29.04
2022-08-03T16:05:34.772Z,28.95
2022-08-03T16:08:03.399Z,28.84
2022-08-03T16:10:30.945Z,28.73
2022-08-03T16:12:59.050Z,28.67
2022-08-03T16:15:26.118Z,28.60
2022-08-03T16:17:53.089Z,28.54
2022-08-03T16:20:29.205Z,28.46
2022-08-03T16:23:10.846Z,28.38
2022-08-03T16:25:39.680Z,28.29
2022-08-03T16:28:13.188Z,28.21
2022-08-03T16:30:42.902Z,28.12
2022-08-03T16:33:10.381Z,28.06
2022-08-03T16:35:37.409Z,28.01
2022-08-03T16:38:09.597Z,27.93
2022-08-03T16:40:37.489Z,27.79
2022-08-03T16:43:18.957Z,27.61
2022-08-03T16:45:47.792Z,27.33
2022-08-03T16:48:15.427Z,27.07
2022-08-03T16:50:42.282Z,26.83
2022-08-03T16:53:16.388Z,26.63
2022-08-03T16:55:53.433Z,26.51
2022-08-03T16:58:34.532Z,26.40
2022-08-03T17:01:22.626Z,26.22
2022-08-03T17:04:03.463Z,26.04
2022-08-03T17:06:36.595Z,25.95
2022-08-03T17:09:19.199Z,25.87
2022-08-03T17:11:54.614Z,25.78
2022-08-03T17:14:29.305Z,25.70
2022-08-03T17:17:03.846Z,25.63
2022-08-03T17:19:35.122Z,25.57
2022-08-03T17:22:12.247Z,25.50
2022-08-03T17:24:47.644Z,25.43
2022-08-03T17:28:51.371Z,25.35
2022-08-03T17:30:11.893Z,25.27
2022-08-03T17:32:42.269Z,25.23
2022-08-03T17:35:10.840Z,25.15
2022-08-03T17:37:57.440Z,25.11
2022-08-03T17:40:24.822Z,25.03
2022-08-03T17:42:52.612Z,24.97
2022-08-03T17:45:20.334Z,24.92
2022-08-03T17:47:56.946Z,24.88
2022-08-03T17:50:37.226Z,24.86
2022-08-03T17:53:15.656Z,24.82
2022-08-03T17:56:04.388Z,24.74
2022-08-03T17:59:17.001Z,24.68
2022-08-03T18:02:50.344Z,24.56
2022-08-03T18:05:21.839Z,24.40
2022-08-03T18:08:01.475Z,24.29
2022-08-03T18:10:35.183Z,24.18
2022-08-03T18:13:15.695Z,24.04
2022-08-03T18:16:02.719Z,23.88
2022-08-03T18:18:36.171Z,23.76
2022-08-03T18:21:09.183Z,23.64
2022-08-03T18:23:43.827Z,23.55
2022-08-03T18:26:12.155Z,23.49
2022-08-03T18:28:39.368Z,23.42
2022-08-03T18:31:11.453Z,23.34
2022-08-03T18:34:16.802Z,23.25
2022-08-03T18:36:30.444Z,23.16
2022-08-03T18:38:59.959Z,23.07
2022-08-03T18:41:32.208Z,23.00
2022-08-03T18:44:08.222Z,22.90
2022-08-03T18:47:07.167Z,22.80
2022-08-03T18:49:47.115Z,22.66
2022-08-03T18:52:27.882Z,22.58
2022-08-03T18:55:19.815Z,22.49
2022-08-03T18:57:51.260Z,22.39
2022-08-03T19:00:24.542Z,22.28
2022-08-03T19:03:20.539Z,22.17
2022-08-03T19:06:02.240Z,22.06
2022-08-03T19:08:54.071Z,21.98
2022-08-03T19:12:11.718Z,21.86
2022-08-03T19:14:39.333Z,21.71
2022-08-03T19:17:11.058Z,21.65
2022-08-03T19:19:43.820Z,21.61
2022-08-03T19:22:19.637Z,21.60
2022-08-03T19:24:47.879Z,21.55
2022-08-03T19:27:16.037Z,21.46
2022-08-03T19:29:57.914Z,21.35
2022-08-03T19:32:31.895Z,21.29
2022-08-03T19:35:00.278Z,21.23
2022-08-03T19:37:38.060Z,21.13
2022-08-03T19:43:04.617Z,21.01
2022-08-03T19:46:05.816Z,20.98
2022-08-03T19:48:29.673Z,20.88
2022-08-03T19:50:59.093Z,20.81
2022-08-03T19:53:35.230Z,20.73
2022-08-03T19:56:07.053Z,20.65
2022-08-03T19:58:35.868Z,20.60
2022-08-03T20:01:19.137Z,20.52
2022-08-03T20:03:51.588Z,20.42
2022-08-03T20:06:22.451Z,20.32
2022-08-03T20:08:51.475Z,20.25
2022-08-03T20:11:19.014Z,20.19
2022-08-03T20:13:49.185Z,20.13
2022-08-03T20:16:16.042Z,20.06
2022-08-03T20:18:42.847Z,19.97
2022-08-03T20:21:15.065Z,19.94
2022-08-03T20:24:00.014Z,19.91
2022-08-03T20:26:31.156Z,19.89
2022-08-03T20:29:09.881Z,19.85
2022-08-03T20:31:38.896Z,19.78
2022-08-03T20:34:07.082Z,19.74
2022-08-03T20:36:35.823Z,19.72
2022-08-03T20:39:07.507Z,19.64
2022-08-03T20:41:34.819Z,19.58
2022-08-03T20:44:02.010Z,19.53
2022-08-03T20:46:41.444Z,19.49
2022-08-03T20:49:21.348Z,19.43
2022-08-03T20:51:53.477Z,19.39
2022-08-03T20:54:29.586Z,19.37
2022-08-03T20:57:03.773Z,19.31
2022-08-03T20:59:46.859Z,19.23
2022-08-03T21:02:19.967Z,19.21
2022-08-03T21:04:56.059Z,19.17
2022-08-03T21:07:25.248Z,19.09
2022-08-03T21:10:15.378Z,19.03
2022-08-03T21:12:53.742Z,18.97
2022-08-03T21:13:08.414Z,21.06
2022-08-03T21:16:13.136Z,18.92
2022-08-03T21:18:14.615Z,18.86
2022-08-03T21:20:43.774Z,18.79
2022-08-03T21:23:35.167Z,18.73
2022-08-03T21:26:03.182Z,18.66
2022-08-03T21:28:31.357Z,18.63
2022-08-03T21:30:59.013Z,18.62
2022-08-03T21:33:27.840Z,18.66
2022-08-03T21:35:54.579Z,18.73
2022-08-03T21:38:29.621Z,18.74
2022-08-03T21:40:57.102Z,18.73
2022-08-03T21:43:24.105Z,18.73
2022-08-03T21:45:55.500Z,18.74
2022-08-03T21:48:25.483Z,18.75
2022-08-03T21:50:53.180Z,18.75
2022-08-03T21:53:20.364Z,18.75
2022-08-03T21:55:54.536Z,18.74
2022-08-03T21:58:31.042Z,18.73
2022-08-03T22:00:59.510Z,18.72
2022-08-03T22:03:26.416Z,18.68
2022-08-03T22:05:54.763Z,18.65
2022-08-03T22:08:34.503Z,18.62
2022-08-03T22:11:04.141Z,18.58
2022-08-03T22:13:43.970Z,18.51
2022-08-03T22:16:12.016Z,18.45
2022-08-03T22:18:40.469Z,18.41
2022-08-03T22:21:11.721Z,18.36
2022-08-03T22:23:47.825Z,18.31
2022-08-03T22:26:34.694Z,18.22
2022-08-03T22:29:01.886Z,18.14
2022-08-03T22:31:36.898Z,18.08
2022-08-03T22:34:15.528Z,18.05
2022-08-03T22:36:42.911Z,18.04
2022-08-03T22:39:10.019Z,18.01
2022-08-03T22:41:37.037Z,17.98
2022-08-03T22:44:04.651Z,17.95
2022-08-03T22:46:34.049Z,17.92
2022-08-03T22:49:01.418Z,17.91
2022-08-03T22:51:29.521Z,17.92
2022-08-03T22:53:56.610Z,17.90
2022-08-03T22:56:23.426Z,17.89
2022-08-03T22:58:50.156Z,17.86
2022-08-03T23:01:20.297Z,17.85
2022-08-03T23:04:02.056Z,17.83
2022-08-03T23:06:35.963Z,17.83
2022-08-03T23:09:11.889Z,17.81
2022-08-03T23:11:42.902Z,17.78
2022-08-03T23:14:18.659Z,17.76
2022-08-03T23:16:46.919Z,17.72
2022-08-03T23:19:25.963Z,17.67
2022-08-03T23:22:03.016Z,17.65
2022-08-03T23:24:34.376Z,17.65
2022-08-03T23:27:03.361Z,17.64
2022-08-03T23:29:31.744Z,17.61
2022-08-03T23:31:59.577Z,17.58
2022-08-03T23:34:46.872Z,17.58
2022-08-03T23:37:15.393Z,17.52
2022-08-03T23:39:46.363Z,17.48
2022-08-03T23:42:18.986Z,17.44
2022-08-03T23:44:46.178Z,17.42
2022-08-03T23:47:13.585Z,17.33
2022-08-03T23:49:40.307Z,17.27
2022-08-03T23:52:14.731Z,17.19
2022-08-03T23:54:59.879Z,17.13
2022-08-03T23:57:48.476Z,17.11
